Time;durP1;ratioP1;P1;durP2;ratioP2;P2;SDS_P1;SDS_P2;PMS_P1;PMS_P2;Temp;Humidity;BMP_temperature;BMP_pressure;BME280_temperature;BME280_humidity;BME280_pressure;Samples;Min_cycle;Max_cycle;Signal;HPM_P1;HPM_P2
2022/09/22 00:03:30;;;;;;;5.00;3.00;;;9.70;94.50;;;;;;20833046;28;20203;-71
2022/09/22 00:13:32;;;;;;;5.47;3.30;;;9.70;94.50;;;;;;20846277;28;20290;-70
2022/09/22 00:23:35;;;;;;;5.10;2.93;;;9.60;94.40;;;;;;20894428;28;20214;-71
2022/09/22 00:33:39;;;;;;;4.20;3.20;;;9.50;94.80;;;;;;20926787;28;20241;-71
2022/09/22 00:43:45;;;;;;;5.13;3.30;;;9.50;94.60;;;;;;20908959;28;20240;-69
2022/09/22 00:53:49;;;;;;;6.47;2.83;;;9.40;94.80;;;;;;20925662;28;20243;-71
2022/09/22 01:03:53;;;;;;;4.73;2.87;;;9.40;94.90;;;;;;20925648;28;20273;-69
2022/09/22 01:14:19;;;;;;;5.83;3.27;;;9.30;94.50;;;;;;20923762;28;20238;-69
2022/09/22 01:24:58;;;;;;;6.00;2.97;;;9.20;94.70;;;;;;20923884;28;20312;-71
2022/09/22 01:35:24;;;;;;;5.83;2.97;;;9.20;94.80;;;;;;20923065;28;20229;-71
2022/09/22 01:45:28;;;;;;;4.43;3.00;;;9.10;94.70;;;;;;20921635;28;20284;-71
2022/09/22 01:55:39;;;;;;;3.97;2.93;;;9.00;94.50;;;;;;20920798;28;20265;-68
2022/09/22 02:05:46;;;;;;;5.90;2.90;;;9.00;94.80;;;;;;20920534;28;20219;-73
2022/09/22 02:15:58;;;;;;;6.90;3.00;;;8.90;94.80;;;;;;20919754;28;20234;-70
2022/09/22 02:26:03;;;;;;;5.87;3.00;;;8.90;94.50;;;;;;20845046;28;20210;-71
2022/09/22 02:36:32;;;;;;;4.27;2.90;;;8.80;94.90;;;;;;20834596;28;20241;-69
2022/09/22 02:46:42;;;;;;;4.83;2.40;;;8.70;94.90;;;;;;20833988;28;20240;-70
2022/09/22 02:56:44;;;;;;;4.40;2.70;;;8.60;94.80;;;;;;20862051;28;20237;-70
2022/09/22 03:06:46;;;;;;;5.10;3.33;;;8.70;95.00;;;;;;20918035;28;20212;-70
2022/09/22 03:16:47;;;;;;;5.83;4.17;;;8.60;94.90;;;;;;20936676;28;20236;-69
2022/09/22 03:26:49;;;;;;;5.30;3.27;;;8.50;94.80;;;;;;20969890;28;20280;-70
2022/09/22 03:36:50;;;;;;;5.13;2.87;;;8.50;94.80;;;;;;20953384;28;20263;-71
2022/09/22 03:46:52;;;;;;;4.70;3.00;;;8.50;95.10;;;;;;20954843;28;20239;-71
2022/09/22 03:56:55;;;;;;;6.20;3.33;;;8.60;95.20;;;;;;20943705;28;20230;-71
2022/09/22 04:06:57;;;;;;;5.93;3.67;;;8.50;95.20;;;;;;20928212;28;20225;-72
2022/09/22 04:16:58;;;;;;;6.90;3.63;;;8.50;95.00;;;;;;20912818;28;20290;-72
2022/09/22 04:27:00;;;;;;;5.97;4.20;;;8.50;95.40;;;;;;20836692;28;20223;-72
2022/09/22 04:37:20;;;;;;;9.17;5.30;;;8.60;95.30;;;;;;20829345;28;20244;-69
2022/09/22 04:47:21;;;;;;;14.37;6.37;;;8.60;95.60;;;;;;20829185;28;20242;-69
2022/09/22 04:57:23;;;;;;;11.07;5.80;;;8.60;95.70;;;;;;20873241;28;20205;-70
2022/09/22 05:07:25;;;;;;;10.63;6.90;;;8.60;96.00;;;;;;20923798;28;20664;-70
2022/09/22 05:17:27;;;;;;;32.10;6.63;;;8.60;96.00;;;;;;20929890;28;20206;-72
2022/09/22 05:27:29;;;;;;;19.27;6.27;;;8.60;96.00;;;;;;20945827;28;20256;-72
2022/09/22 05:37:30;;;;;;;20.53;6.87;;;8.70;96.50;;;;;;20951384;28;20510;-75
2022/09/22 05:47:33;;;;;;;23.23;7.40;;;8.70;96.40;;;;;;20941746;28;20237;-72
2022/09/22 05:57:35;;;;;;;36.50;8.40;;;8.60;96.20;;;;;;20943250;28;20605;-74
2022/09/22 06:07:36;;;;;;;18.23;9.20;;;8.60;96.60;;;;;;20924630;28;20233;-78
2022/09/22 06:17:38;;;;;;;42.47;10.07;;;8.70;96.70;;;;;;20918419;28;20586;-73
2022/09/22 06:27:40;;;;;;;29.23;10.23;;;8.80;96.70;;;;;;20914211;28;20225;-72
2022/09/22 06:37:41;;;;;;;79.00;11.07;;;8.80;96.80;;;;;;20916191;28;20568;-77
2022/09/22 06:47:43;;;;;;;18.47;8.67;;;8.80;97.00;;;;;;20917211;28;20282;-77
2022/09/22 06:57:45;;;;;;;14.43;7.80;;;9.00;97.00;;;;;;20914957;28;20199;-78
2022/09/22 07:07:47;;;;;;;33.63;9.53;;;9.00;96.80;;;;;;20914626;28;20288;-80
2022/09/22 07:17:52;;;;;;;20.10;7.90;;;9.10;96.90;;;;;;20913716;28;20205;-72
2022/09/22 07:27:56;;;;;;;10.80;6.80;;;9.10;97.10;;;;;;20913020;28;20287;-70
2022/09/22 07:38:01;;;;;;;10.53;6.67;;;9.20;96.80;;;;;;20912893;28;20203;-73
2022/09/22 07:58:24;;;;;;;18.00;6.37;;;9.30;97.30;;;;;;20912268;28;20206;-72
2022/09/22 08:08:26;;;;;;;7.37;5.90;;;9.40;97.60;;;;;;20912137;28;20233;-71
2022/09/22 08:18:29;;;;;;;14.63;6.10;;;9.70;97.70;;;;;;20911592;28;20202;-72
2022/09/22 08:28:32;;;;;;;10.43;5.53;;;9.90;97.30;;;;;;20846431;28;20264;-72
2022/09/22 08:38:33;;;;;;;11.77;5.83;;;10.70;96.80;;;;;;20842196;28;20212;-72
2022/09/22 08:59:16;;;;;;;9.30;5.63;;;11.40;96.40;;;;;;20888952;28;20271;-75
2022/09/22 09:09:34;;;;;;;9.80;5.87;;;12.20;95.70;;;;;;20924234;28;20235;-79
2022/09/22 09:19:41;;;;;;;10.57;5.80;;;12.30;95.80;;;;;;20925095;28;20200;-75
2022/09/22 09:29:55;;;;;;;11.77;6.03;;;12.70;95.10;;;;;;20923559;28;20247;-79
2022/09/22 09:40:01;;;;;;;14.17;5.60;;;13.30;93.90;;;;;;20921408;28;20274;-78
2022/09/22 09:50:03;;;;;;;8.43;4.93;;;13.50;94.00;;;;;;20922399;28;20249;-81
2022/09/22 10:00:32;;;;;;;8.87;4.50;;;13.90;93.60;;;;;;20922036;28;20227;-80
2022/09/22 10:10:39;;;;;;;11.87;4.80;;;14.20;93.00;;;;;;20920990;28;20289;-79
2022/09/22 10:20:41;;;;;;;7.03;3.00;;;14.80;91.60;;;;;;20917944;28;20209;-76
2022/09/22 10:31:05;;;;;;;9.03;3.33;;;14.90;91.80;;;;;;20837937;28;20283;-77
2022/09/22 10:41:11;;;;;;;4.90;2.43;;;15.00;90.80;;;;;;20836005;28;20245;-80
2022/09/22 10:51:55;;;;;;;4.67;2.50;;;15.30;90.10;;;;;;20833619;28;20244;-73
2022/09/22 11:02:44;;;;;;;3.10;1.90;;;15.50;87.40;;;;;;20890007;28;20320;-71
2022/09/22 11:13:04;;;;;;;2.20;1.70;;;15.70;85.20;;;;;;20916968;28;20633;-72
2022/09/22 11:23:33;;;;;;;3.70;1.60;;;15.90;80.80;;;;;;20915282;28;20208;-78
2022/09/22 11:33:47;;;;;;;1.73;1.20;;;16.10;79.70;;;;;;20915412;28;20702;-78
2022/09/22 11:44:04;;;;;;;2.10;1.27;;;16.30;77.00;;;;;;20913009;28;20257;-76
2022/09/22 11:54:31;;;;;;;1.40;1.30;;;16.50;74.00;;;;;;20912179;28;20774;-73
2022/09/22 12:04:39;;;;;;;2.67;1.30;;;16.80;71.70;;;;;;20912647;28;20644;-73
2022/09/22 12:14:41;;;;;;;1.43;1.10;;;17.10;69.30;;;;;;20894616;28;20304;-72
2022/09/22 12:24:46;;;;;;;3.20;1.70;;;17.40;67.10;;;;;;20905787;28;20259;-73
2022/09/22 12:34:48;;;;;;;2.53;1.50;;;17.70;65.50;;;;;;20912454;28;20248;-70
2022/09/22 12:44:57;;;;;;;2.13;1.60;;;17.90;63.80;;;;;;20947335;28;20297;-73
2022/09/22 12:55:27;;;;;;;4.67;1.77;;;17.90;62.40;;;;;;21024875;28;20699;-71
2022/09/22 13:05:29;;;;;;;2.50;1.80;;;18.10;62.50;;;;;;21021243;28;20228;-71
2022/09/22 13:15:48;;;;;;;6.77;1.50;;;18.20;62.90;;;;;;21005971;28;20317;-73
2022/09/22 13:25:50;;;;;;;5.47;1.70;;;18.20;61.50;;;;;;21037229;28;20206;-72
2022/09/22 13:36:06;;;;;;;2.53;1.60;;;18.20;62.00;;;;;;21040718;28;20237;-71
2022/09/22 13:46:25;;;;;;;2.90;1.80;;;18.30;60.50;;;;;;20997649;28;20245;-72
2022/09/22 13:56:27;;;;;;;3.27;1.73;;;18.40;61.20;;;;;;20921090;28;20698;-74
2022/09/22 14:06:31;;;;;;;3.93;2.00;;;18.50;61.10;;;;;;20920043;28;20209;-70
2022/09/22 14:16:55;;;;;;;150.63;102.37;;;18.30;61.00;;;;;;20919680;28;20238;-71
2022/09/22 14:27:02;;;;;;;7.57;5.60;;;17.90;60.60;;;;;;20918897;28;20205;-71
2022/09/22 14:37:19;;;;;;;3.67;2.30;;;17.40;59.80;;;;;;20917872;28;20282;-72
2022/09/22 14:47:28;;;;;;;3.23;1.80;;;17.30;60.30;;;;;;20917830;28;20263;-73
2022/09/22 14:57:29;;;;;;;2.63;1.60;;;17.50;59.60;;;;;;20915500;28;20228;-74
2022/09/22 15:07:34;;;;;;;3.00;2.17;;;17.90;59.70;;;;;;20915143;28;20204;-73
2022/09/22 15:28:10;;;;;;;2.83;1.60;;;18.00;57.50;;;;;;20837319;28;20303;-71
2022/09/22 15:38:23;;;;;;;2.97;1.60;;;17.70;57.10;;;;;;20886459;28;20262;-75
2022/09/22 15:48:38;;;;;;;3.67;1.50;;;17.40;56.10;;;;;;20911210;28;20245;-74
2022/09/22 15:58:42;;;;;;;2.23;1.60;;;17.40;56.70;;;;;;20912957;28;20226;-74
2022/09/22 16:08:50;;;;;;;3.20;1.67;;;17.30;56.70;;;;;;20911627;28;20240;-75
2022/09/22 16:18:53;;;;;;;2.67;1.70;;;17.10;56.30;;;;;;20870235;28;20216;-75
2022/09/22 16:28:55;;;;;;;4.00;1.70;;;17.00;56.70;;;;;;20828532;28;20590;-70
2022/09/22 16:38:57;;;;;;;6.13;2.00;;;16.90;56.60;;;;;;20828771;28;20220;-75
2022/09/22 16:49:05;;;;;;;4.87;3.23;;;16.80;56.60;;;;;;20835940;28;20240;-76
2022/09/22 16:59:07;;;;;;;1.97;1.77;;;16.70;57.70;;;;;;20890817;28;20254;-76
2022/09/22 17:09:11;;;;;;;3.33;2.30;;;16.50;58.80;;;;;;20924417;28;20651;-73
2022/09/22 17:19:18;;;;;;;5.27;2.80;;;16.20;59.80;;;;;;20924675;28;20283;-72
2022/09/22 17:29:23;;;;;;;9.47;4.87;;;15.90;60.80;;;;;;20923330;28;20236;-73
2022/09/22 17:39:27;;;;;;;10.20;4.63;;;15.60;62.40;;;;;;20922256;28;20326;-72
2022/09/22 17:59:50;;;;;;;11.13;6.50;;;15.10;64.70;;;;;;20886431;28;20250;-66
2022/09/22 18:09:55;;;;;;;7.97;4.37;;;14.90;65.70;;;;;;20917689;28;20240;-67
2022/09/22 18:19:58;;;;;;;11.07;6.97;;;14.60;67.00;;;;;;20919807;28;20200;-70
2022/09/22 18:29:59;;;;;;;9.50;5.83;;;14.40;68.20;;;;;;20916400;28;20234;-74
2022/09/22 18:40:02;;;;;;;11.73;8.10;;;14.10;70.20;;;;;;20917978;28;20212;-74
2022/09/22 18:50:04;;;;;;;15.33;8.17;;;13.90;71.60;;;;;;21002619;28;20241;-73
2022/09/22 19:00:07;;;;;;;14.33;7.10;;;13.70;71.80;;;;;;21026254;28;20198;-78
2022/09/22 19:10:11;;;;;;;13.97;6.10;;;13.50;73.30;;;;;;20966168;28;20245;-66
2022/09/22 19:20:16;;;;;;;9.27;6.40;;;13.30;74.80;;;;;;20940311;28;20290;-65
2022/09/22 19:30:18;;;;;;;10.73;5.80;;;13.00;76.10;;;;;;20987564;28;20230;-72
2022/09/22 19:40:25;;;;;;;8.27;5.67;;;12.90;77.40;;;;;;20959230;28;20973;-68
2022/09/22 19:50:26;;;;;;;10.40;5.90;;;12.60;79.10;;;;;;20929574;28;20240;-70
2022/09/22 20:00:30;;;;;;;9.90;6.27;;;12.60;79.90;;;;;;20861240;28;20241;-66
2022/09/22 20:10:35;;;;;;;12.50;7.20;;;12.40;81.20;;;;;;20830591;28;20238;-67
2022/09/22 20:20:37;;;;;;;13.33;7.43;;;12.20;82.50;;;;;;20913357;28;20269;-65
2022/09/22 20:30:40;;;;;;;17.37;9.37;;;12.00;83.80;;;;;;20926895;28;20259;-64
2022/09/22 20:40:43;;;;;;;12.03;7.13;;;12.00;85.00;;;;;;20925844;28;20682;-66
2022/09/22 20:50:56;;;;;;;18.13;7.23;;;11.80;86.20;;;;;;20892502;28;20715;-71
2022/09/22 21:00:59;;;;;;;10.93;6.50;;;11.80;87.10;;;;;;20842329;28;20207;-68
2022/09/22 21:11:00;;;;;;;14.27;7.17;;;11.80;87.80;;;;;;20842665;28;20302;-69
2022/09/22 21:21:04;;;;;;;11.57;6.20;;;11.60;88.50;;;;;;20920435;28;20210;-73
2022/09/22 21:31:09;;;;;;;13.60;7.47;;;11.50;89.40;;;;;;20920068;28;20289;-71
2022/09/22 21:41:17;;;;;;;11.63;6.50;;;11.30;90.00;;;;;;20920794;28;20202;-72
2022/09/22 21:51:20;;;;;;;8.80;5.97;;;11.10;90.30;;;;;;20920315;28;20769;-73
2022/09/22 22:01:28;;;;;;;9.77;4.90;;;11.00;90.60;;;;;;20919741;28;20261;-71
2022/09/22 22:11:35;;;;;;;7.20;5.03;;;10.80;90.70;;;;;;20916488;28;20239;-76
2022/09/22 22:21:41;;;;;;;8.77;5.47;;;10.60;91.20;;;;;;20896066;28;20206;-72
2022/09/22 22:31:44;;;;;;;6.27;5.13;;;10.60;91.50;;;;;;20916697;28;20636;-74
2022/09/22 22:41:47;;;;;;;15.10;7.30;;;10.50;91.60;;;;;;20918396;28;20207;-72
2022/09/22 22:51:51;;;;;;;6.33;4.80;;;10.50;92.00;;;;;;20917413;28;20296;-74
2022/09/22 23:01:52;;;;;;;14.00;6.07;;;10.40;92.00;;;;;;20918017;28;20215;-70
2022/09/22 23:11:54;;;;;;;7.53;4.90;;;10.30;91.90;;;;;;20916047;28;20235;-73
2022/09/22 23:21:57;;;;;;;26.97;12.00;;;10.30;92.20;;;;;;20915439;28;20559;-74
2022/09/22 23:31:59;;;;;;;10.87;4.50;;;10.30;92.30;;;;;;20914755;28;20306;-74
2022/09/22 23:42:01;;;;;;;13.43;5.33;;;10.20;92.40;;;;;;20913802;28;20732;-73
2022/09/22 23:52:02;;;;;;;5.47;4.50;;;10.10;92.40;;;;;;20913125;28;20726;-72
